sensor_id;sensor_type;location;lat;lon;timestamp;P1;durP1;ratioP1;P2;durP2;ratioP2
77453;SDS011;66538;53.150;18.160;2023-03-24T00:00:16;11.80;;;6.70;;
77453;SDS011;66538;53.150;18.160;2023-03-24T00:03:05;10.50;;;5.80;;
77453;SDS011;66538;53.150;18.160;2023-03-24T00:05:32;13.10;;;6.70;;
77453;SDS011;66538;53.150;18.160;2023-03-24T00:07:59;10.80;;;5.70;;
77453;SDS011;66538;53.150;18.160;2023-03-24T00:10:28;11.90;;;6.00;;
77453;SDS011;66538;53.150;18.160;2023-03-24T00:12:56;9.30;;;5.40;;
77453;SDS011;66538;53.150;18.160;2023-03-24T00:15:23;12.00;;;6.30;;
77453;SDS011;66538;53.150;18.160;2023-03-24T00:17:51;12.70;;;6.30;;
77453;SDS011;66538;53.150;18.160;2023-03-24T00:20:19;11.90;;;6.10;;
77453;SDS011;66538;53.150;18.160;2023-03-24T00:22:48;11.50;;;6.80;;
77453;SDS011;66538;53.150;18.160;2023-03-24T00:25:22;11.00;;;6.10;;
77453;SDS011;66538;53.150;18.160;2023-03-24T00:27:54;10.40;;;5.50;;
77453;SDS011;66538;53.150;18.160;2023-03-24T00:30:22;14.30;;;7.60;;
77453;SDS011;66538;53.150;18.160;2023-03-24T00:32:50;14.30;;;7.50;;
77453;SDS011;66538;53.150;18.160;2023-03-24T00:35:18;13.40;;;7.50;;
77453;SDS011;66538;53.150;18.160;2023-03-24T00:37:45;13.80;;;7.50;;
77453;SDS011;66538;53.150;18.160;2023-03-24T00:40:13;11.20;;;7.10;;
77453;SDS011;66538;53.150;18.160;2023-03-24T00:42:43;14.00;;;8.00;;
77453;SDS011;66538;53.150;18.160;2023-03-24T00:45:13;14.80;;;8.70;;
77453;SDS011;66538;53.150;18.160;2023-03-24T00:47:43;14.80;;;8.70;;
77453;SDS011;66538;53.150;18.160;2023-03-24T00:50:14;12.20;;;7.60;;
77453;SDS011;66538;53.150;18.160;2023-03-24T00:52:42;14.00;;;8.00;;
77453;SDS011;66538;53.150;18.160;2023-03-24T00:55:13;16.30;;;9.10;;
77453;SDS011;66538;53.150;18.160;2023-03-24T00:57:42;18.70;;;10.30;;
77453;SDS011;66538;53.150;18.160;2023-03-24T01:00:16;22.80;;;11.80;;
77453;SDS011;66538;53.150;18.160;2023-03-24T01:02:46;16.10;;;9.30;;
77453;SDS011;66538;53.150;18.160;2023-03-24T01:05:19;14.80;;;8.80;;
77453;SDS011;66538;53.150;18.160;2023-03-24T01:07:48;14.90;;;9.00;;
77453;SDS011;66538;53.150;18.160;2023-03-24T01:10:18;15.00;;;8.40;;
77453;SDS011;66538;53.150;18.160;2023-03-24T01:12:52;13.00;;;7.60;;
77453;SDS011;66538;53.150;18.160;2023-03-24T01:15:22;15.60;;;8.70;;
77453;SDS011;66538;53.150;18.160;2023-03-24T01:17:51;15.40;;;8.80;;
77453;SDS011;66538;53.150;18.160;2023-03-24T01:20:20;16.10;;;9.10;;
77453;SDS011;66538;53.150;18.160;2023-03-24T01:22:48;18.10;;;9.50;;
77453;SDS011;66538;53.150;18.160;2023-03-24T01:25:17;14.90;;;9.10;;
77453;SDS011;66538;53.150;18.160;2023-03-24T01:27:46;17.50;;;9.50;;
77453;SDS011;66538;53.150;18.160;2023-03-24T01:30:16;14.90;;;8.80;;
77453;SDS011;66538;53.150;18.160;2023-03-24T01:32:45;17.10;;;8.50;;
77453;SDS011;66538;53.150;18.160;2023-03-24T01:41:08;10.70;;;5.80;;
77453;SDS011;66538;53.150;18.160;2023-03-24T01:43:35;12.30;;;7.10;;
77453;SDS011;66538;53.150;18.160;2023-03-24T01:46:05;11.90;;;7.00;;
77453;SDS011;66538;53.150;18.160;2023-03-24T01:48:51;13.40;;;7.80;;
77453;SDS011;66538;53.150;18.160;2023-03-24T01:54:13;17.30;;;8.20;;
77453;SDS011;66538;53.150;18.160;2023-03-24T01:56:46;18.00;;;9.20;;
77453;SDS011;66538;53.150;18.160;2023-03-24T01:59:20;18.60;;;9.80;;
77453;SDS011;66538;53.150;18.160;2023-03-24T02:02:13;18.90;;;9.50;;
77453;SDS011;66538;53.150;18.160;2023-03-24T02:04:46;17.40;;;9.70;;
77453;SDS011;66538;53.150;18.160;2023-03-24T02:07:33;18.10;;;9.20;;
77453;SDS011;66538;53.150;18.160;2023-03-24T02:10:03;19.10;;;9.20;;
77453;SDS011;66538;53.150;18.160;2023-03-24T02:12:33;17.40;;;8.30;;
77453;SDS011;66538;53.150;18.160;2023-03-24T02:15:01;19.20;;;8.90;;
77453;SDS011;66538;53.150;18.160;2023-03-24T02:26:19;13.50;;;7.40;;
77453;SDS011;66538;53.150;18.160;2023-03-24T02:31:14;14.00;;;7.30;;
77453;SDS011;66538;53.150;18.160;2023-03-24T02:39:16;12.80;;;7.00;;
77453;SDS011;66538;53.150;18.160;2023-03-24T02:42:09;13.00;;;6.10;;
77453;SDS011;66538;53.150;18.160;2023-03-24T02:47:19;9.50;;;5.50;;
77453;SDS011;66538;53.150;18.160;2023-03-24T02:50:00;9.10;;;5.30;;
77453;SDS011;66538;53.150;18.160;2023-03-24T02:52:49;9.80;;;5.50;;
77453;SDS011;66538;53.150;18.160;2023-03-24T02:55:29;9.70;;;5.20;;
77453;SDS011;66538;53.150;18.160;2023-03-24T02:58:01;9.60;;;5.70;;
77453;SDS011;66538;53.150;18.160;2023-03-24T03:00:58;10.00;;;5.30;;
77453;SDS011;66538;53.150;18.160;2023-03-24T03:03:58;11.00;;;6.00;;
77453;SDS011;66538;53.150;18.160;2023-03-24T03:06:32;11.80;;;6.20;;
77453;SDS011;66538;53.150;18.160;2023-03-24T03:09:06;9.90;;;5.60;;
77453;SDS011;66538;53.150;18.160;2023-03-24T03:11:38;11.00;;;6.20;;
77453;SDS011;66538;53.150;18.160;2023-03-24T03:14:09;12.20;;;6.70;;
77453;SDS011;66538;53.150;18.160;2023-03-24T03:16:46;11.20;;;5.40;;
77453;SDS011;66538;53.150;18.160;2023-03-24T03:19:37;13.50;;;6.20;;
77453;SDS011;66538;53.150;18.160;2023-03-24T03:22:09;9.80;;;5.80;;
77453;SDS011;66538;53.150;18.160;2023-03-24T03:24:42;11.60;;;5.60;;
77453;SDS011;66538;53.150;18.160;2023-03-24T03:27:25;9.20;;;5.70;;
77453;SDS011;66538;53.150;18.160;2023-03-24T03:30:07;12.00;;;6.10;;
77453;SDS011;66538;53.150;18.160;2023-03-24T03:32:42;12.90;;;6.30;;
77453;SDS011;66538;53.150;18.160;2023-03-24T03:35:21;12.00;;;6.70;;
77453;SDS011;66538;53.150;18.160;2023-03-24T03:40:30;13.90;;;7.60;;
77453;SDS011;66538;53.150;18.160;2023-03-24T03:43:17;12.60;;;6.40;;
77453;SDS011;66538;53.150;18.160;2023-03-24T03:45:44;15.00;;;7.90;;
77453;SDS011;66538;53.150;18.160;2023-03-24T03:48:11;18.00;;;9.80;;
77453;SDS011;66538;53.150;18.160;2023-03-24T03:50:38;19.00;;;11.60;;
77453;SDS011;66538;53.150;18.160;2023-03-24T03:53:06;25.30;;;13.80;;
77453;SDS011;66538;53.150;18.160;2023-03-24T03:55:33;24.70;;;14.60;;
77453;SDS011;66538;53.150;18.160;2023-03-24T03:58:04;22.60;;;12.70;;
77453;SDS011;66538;53.150;18.160;2023-03-24T04:00:38;19.00;;;11.70;;
77453;SDS011;66538;53.150;18.160;2023-03-24T04:03:30;22.90;;;10.60;;
77453;SDS011;66538;53.150;18.160;2023-03-24T06:56:43;11.30;;;6.00;;
77453;SDS011;66538;53.150;18.160;2023-03-24T06:59:10;11.80;;;6.30;;
77453;SDS011;66538;53.150;18.160;2023-03-24T07:01:38;11.30;;;7.10;;
77453;SDS011;66538;53.150;18.160;2023-03-24T07:04:15;11.60;;;6.40;;
77453;SDS011;66538;53.150;18.160;2023-03-24T07:06:52;11.60;;;6.50;;
77453;SDS011;66538;53.150;18.160;2023-03-24T07:09:20;10.30;;;5.70;;
77453;SDS011;66538;53.150;18.160;2023-03-24T07:11:47;15.80;;;8.90;;
77453;SDS011;66538;53.150;18.160;2023-03-24T07:14:14;16.00;;;7.90;;
77453;SDS011;66538;53.150;18.160;2023-03-24T07:16:41;12.60;;;6.70;;
77453;SDS011;66538;53.150;18.160;2023-03-24T07:19:34;12.80;;;6.50;;
77453;SDS011;66538;53.150;18.160;2023-03-24T07:22:36;13.30;;;8.40;;
77453;SDS011;66538;53.150;18.160;2023-03-24T07:25:32;11.00;;;7.30;;
77453;SDS011;66538;53.150;18.160;2023-03-24T07:28:10;10.80;;;6.00;;
77453;SDS011;66538;53.150;18.160;2023-03-24T07:30:38;10.20;;;6.50;;
77453;SDS011;66538;53.150;18.160;2023-03-24T07:33:05;10.70;;;6.60;;
77453;SDS011;66538;53.150;18.160;2023-03-24T07:35:33;9.70;;;5.50;;
77453;SDS011;66538;53.150;18.160;2023-03-24T07:38:00;12.90;;;5.90;;
77453;SDS011;66538;53.150;18.160;2023-03-24T07:40:28;11.80;;;7.10;;
77453;SDS011;66538;53.150;18.160;2023-03-24T07:42:58;11.60;;;6.40;;
77453;SDS011;66538;53.150;18.160;2023-03-24T07:45:55;27.30;;;12.80;;
77453;SDS011;66538;53.150;18.160;2023-03-24T07:48:21;17.80;;;10.60;;
77453;SDS011;66538;53.150;18.160;2023-03-24T07:50:51;14.30;;;8.50;;
77453;SDS011;66538;53.150;18.160;2023-03-24T07:53:38;15.30;;;8.60;;
77453;SDS011;66538;53.150;18.160;2023-03-24T07:56:05;11.80;;;7.40;;
77453;SDS011;66538;53.150;18.160;2023-03-24T07:58:35;13.40;;;7.10;;
77453;SDS011;66538;53.150;18.160;2023-03-24T08:01:21;19.10;;;9.30;;
77453;SDS011;66538;53.150;18.160;2023-03-24T08:03:48;12.70;;;7.30;;
77453;SDS011;66538;53.150;18.160;2023-03-24T08:06:45;11.00;;;6.80;;
77453;SDS011;66538;53.150;18.160;2023-03-24T08:09:12;12.20;;;6.60;;
77453;SDS011;66538;53.150;18.160;2023-03-24T08:11:39;12.50;;;7.30;;
77453;SDS011;66538;53.150;18.160;2023-03-24T08:14:06;13.70;;;7.00;;
77453;SDS011;66538;53.150;18.160;2023-03-24T08:16:33;16.00;;;10.30;;
77453;SDS011;66538;53.150;18.160;2023-03-24T08:18:59;13.80;;;8.50;;
77453;SDS011;66538;53.150;18.160;2023-03-24T08:21:26;11.30;;;6.40;;
77453;SDS011;66538;53.150;18.160;2023-03-24T08:23:53;19.10;;;8.00;;
77453;SDS011;66538;53.150;18.160;2023-03-24T08:26:19;13.50;;;6.60;;
77453;SDS011;66538;53.150;18.160;2023-03-24T08:28:47;15.30;;;6.70;;
77453;SDS011;66538;53.150;18.160;2023-03-24T08:31:14;12.60;;;7.80;;
77453;SDS011;66538;53.150;18.160;2023-03-24T08:33:41;27.90;;;12.10;;
77453;SDS011;66538;53.150;18.160;2023-03-24T08:36:08;22.10;;;10.20;;
77453;SDS011;66538;53.150;18.160;2023-03-24T08:38:34;15.20;;;8.40;;
77453;SDS011;66538;53.150;18.160;2023-03-24T08:41:04;14.80;;;7.30;;
77453;SDS011;66538;53.150;18.160;2023-03-24T08:43:35;14.90;;;8.40;;
77453;SDS011;66538;53.150;18.160;2023-03-24T08:46:05;14.40;;;8.40;;
77453;SDS011;66538;53.150;18.160;2023-03-24T08:48:33;17.80;;;10.10;;
77453;SDS011;66538;53.150;18.160;2023-03-24T08:51:08;15.50;;;7.60;;
77453;SDS011;66538;53.150;18.160;2023-03-24T08:53:36;11.80;;;7.30;;
77453;SDS011;66538;53.150;18.160;2023-03-24T08:56:03;11.50;;;6.40;;
77453;SDS011;66538;53.150;18.160;2023-03-24T08:58:30;12.50;;;6.80;;
77453;SDS011;66538;53.150;18.160;2023-03-24T09:00:57;14.30;;;8.10;;
77453;SDS011;66538;53.150;18.160;2023-03-24T09:03:23;12.20;;;7.50;;
77453;SDS011;66538;53.150;18.160;2023-03-24T09:05:53;20.10;;;10.90;;
77453;SDS011;66538;53.150;18.160;2023-03-24T09:08:24;11.80;;;7.50;;
77453;SDS011;66538;53.150;18.160;2023-03-24T09:10:51;11.90;;;7.50;;
77453;SDS011;66538;53.150;18.160;2023-03-24T09:13:18;13.40;;;7.90;;
77453;SDS011;66538;53.150;18.160;2023-03-24T09:15:47;10.10;;;6.70;;
77453;SDS011;66538;53.150;18.160;2023-03-24T09:18:15;11.50;;;5.80;;
77453;SDS011;66538;53.150;18.160;2023-03-24T09:20:43;9.70;;;6.50;;
77453;SDS011;66538;53.150;18.160;2023-03-24T09:23:10;6.60;;;4.50;;
77453;SDS011;66538;53.150;18.160;2023-03-24T09:25:37;12.50;;;8.20;;
77453;SDS011;66538;53.150;18.160;2023-03-24T09:28:04;9.40;;;5.70;;
77453;SDS011;66538;53.150;18.160;2023-03-24T09:30:33;7.60;;;4.60;;
77453;SDS011;66538;53.150;18.160;2023-03-24T09:33:00;8.80;;;5.20;;
77453;SDS011;66538;53.150;18.160;2023-03-24T09:35:27;9.40;;;5.60;;
77453;SDS011;66538;53.150;18.160;2023-03-24T09:37:54;6.50;;;4.00;;
77453;SDS011;66538;53.150;18.160;2023-03-24T09:40:26;7.70;;;4.20;;
77453;SDS011;66538;53.150;18.160;2023-03-24T09:42:56;9.20;;;5.50;;
77453;SDS011;66538;53.150;18.160;2023-03-24T09:45:33;6.40;;;3.80;;
77453;SDS011;66538;53.150;18.160;2023-03-24T09:48:06;7.50;;;4.70;;
77453;SDS011;66538;53.150;18.160;2023-03-24T09:50:44;7.40;;;4.20;;
77453;SDS011;66538;53.150;18.160;2023-03-24T09:54:08;7.60;;;3.80;;
77453;SDS011;66538;53.150;18.160;2023-03-24T09:56:16;7.20;;;4.30;;
77453;SDS011;66538;53.150;18.160;2023-03-24T09:58:47;6.00;;;3.70;;
77453;SDS011;66538;53.150;18.160;2023-03-24T10:01:18;6.80;;;3.90;;
77453;SDS011;66538;53.150;18.160;2023-03-24T10:03:46;7.00;;;3.70;;
77453;SDS011;66538;53.150;18.160;2023-03-24T10:06:19;6.00;;;3.50;;
77453;SDS011;66538;53.150;18.160;2023-03-24T10:08:50;6.50;;;3.90;;
77453;SDS011;66538;53.150;18.160;2023-03-24T10:24:47;5.50;;;2.90;;
77453;SDS011;66538;53.150;18.160;2023-03-24T10:27:32;5.40;;;3.30;;
77453;SDS011;66538;53.150;18.160;2023-03-24T10:30:15;6.80;;;3.10;;
77453;SDS011;66538;53.150;18.160;2023-03-24T10:32:44;5.20;;;3.00;;
77453;SDS011;66538;53.150;18.160;2023-03-24T10:35:17;5.80;;;2.90;;
77453;SDS011;66538;53.150;18.160;2023-03-24T10:37:48;5.50;;;2.70;;
77453;SDS011;66538;53.150;18.160;2023-03-24T10:40:18;5.10;;;2.70;;
77453;SDS011;66538;53.150;18.160;2023-03-24T10:42:50;3.90;;;1.90;;
77453;SDS011;66538;53.150;18.160;2023-03-24T10:45:20;6.00;;;2.80;;
77453;SDS011;66538;53.150;18.160;2023-03-24T10:48:00;4.80;;;2.60;;
77453;SDS011;66538;53.150;18.160;2023-03-24T10:50:31;4.40;;;2.30;;
77453;SDS011;66538;53.150;18.160;2023-03-24T10:53:07;4.60;;;2.70;;
77453;SDS011;66538;53.150;18.160;2023-03-24T10:55:35;4.10;;;2.30;;
77453;SDS011;66538;53.150;18.160;2023-03-24T10:58:43;5.90;;;2.60;;
77453;SDS011;66538;53.150;18.160;2023-03-24T11:01:23;4.30;;;2.30;;
77453;SDS011;66538;53.150;18.160;2023-03-24T11:03:57;6.50;;;2.30;;
77453;SDS011;66538;53.150;18.160;2023-03-24T11:06:26;4.70;;;2.60;;
77453;SDS011;66538;53.150;18.160;2023-03-24T11:09:06;5.50;;;2.90;;
77453;SDS011;66538;53.150;18.160;2023-03-24T11:11:44;5.50;;;2.40;;
77453;SDS011;66538;53.150;18.160;2023-03-24T11:17:01;6.10;;;2.50;;
77453;SDS011;66538;53.150;18.160;2023-03-24T11:19:36;4.60;;;2.30;;
77453;SDS011;66538;53.150;18.160;2023-03-24T11:22:04;5.50;;;2.90;;
77453;SDS011;66538;53.150;18.160;2023-03-24T11:24:36;4.10;;;2.50;;
77453;SDS011;66538;53.150;18.160;2023-03-24T11:27:03;4.60;;;2.20;;
77453;SDS011;66538;53.150;18.160;2023-03-24T11:29:32;6.20;;;2.50;;
77453;SDS011;66538;53.150;18.160;2023-03-24T11:32:09;5.30;;;2.30;;
77453;SDS011;66538;53.150;18.160;2023-03-24T11:34:43;4.30;;;2.40;;
77453;SDS011;66538;53.150;18.160;2023-03-24T11:37:17;5.70;;;2.60;;
77453;SDS011;66538;53.150;18.160;2023-03-24T11:43:03;5.20;;;2.50;;
77453;SDS011;66538;53.150;18.160;2023-03-24T11:45:40;5.00;;;2.70;;
77453;SDS011;66538;53.150;18.160;2023-03-24T11:48:15;4.30;;;2.60;;
77453;SDS011;66538;53.150;18.160;2023-03-24T11:50:51;9.90;;;2.60;;
77453;SDS011;66538;53.150;18.160;2023-03-24T11:53:21;6.00;;;2.90;;
77453;SDS011;66538;53.150;18.160;2023-03-24T11:56:09;5.90;;;2.70;;
77453;SDS011;66538;53.150;18.160;2023-03-24T12:01:56;5.90;;;3.20;;
77453;SDS011;66538;53.150;18.160;2023-03-24T12:13:20;6.20;;;3.50;;
77453;SDS011;66538;53.150;18.160;2023-03-24T12:27:58;7.80;;;3.60;;
77453;SDS011;66538;53.150;18.160;2023-03-24T12:36:12;7.00;;;3.30;;
77453;SDS011;66538;53.150;18.160;2023-03-24T12:39:06;5.50;;;3.20;;
77453;SDS011;66538;53.150;18.160;2023-03-24T12:52:48;5.10;;;3.00;;
77453;SDS011;66538;53.150;18.160;2023-03-24T12:55:42;8.10;;;4.50;;
77453;SDS011;66538;53.150;18.160;2023-03-24T12:58:16;7.50;;;4.00;;
77453;SDS011;66538;53.150;18.160;2023-03-24T13:01:32;7.30;;;4.40;;
77453;SDS011;66538;53.150;18.160;2023-03-24T13:04:07;5.80;;;3.50;;
77453;SDS011;66538;53.150;18.160;2023-03-24T13:09:33;8.90;;;6.00;;
77453;SDS011;66538;53.150;18.160;2023-03-24T13:12:26;10.00;;;5.60;;
77453;SDS011;66538;53.150;18.160;2023-03-24T13:17:48;8.50;;;4.70;;
77453;SDS011;66538;53.150;18.160;2023-03-24T13:20:33;7.40;;;4.30;;
77453;SDS011;66538;53.150;18.160;2023-03-24T13:23:21;7.70;;;4.80;;
77453;SDS011;66538;53.150;18.160;2023-03-24T13:26:09;9.90;;;4.80;;
77453;SDS011;66538;53.150;18.160;2023-03-24T13:31:36;7.40;;;4.50;;
77453;SDS011;66538;53.150;18.160;2023-03-24T13:34:12;7.60;;;4.00;;
77453;SDS011;66538;53.150;18.160;2023-03-24T13:37:01;8.50;;;4.90;;
77453;SDS011;66538;53.150;18.160;2023-03-24T13:39:35;9.80;;;5.10;;
77453;SDS011;66538;53.150;18.160;2023-03-24T13:42:03;7.70;;;5.10;;
77453;SDS011;66538;53.150;18.160;2023-03-24T13:44:40;7.60;;;5.10;;
77453;SDS011;66538;53.150;18.160;2023-03-24T13:47:13;6.90;;;3.60;;
77453;SDS011;66538;53.150;18.160;2023-03-24T13:49:44;6.70;;;4.20;;
77453;SDS011;66538;53.150;18.160;2023-03-24T13:52:39;9.20;;;4.80;;
77453;SDS011;66538;53.150;18.160;2023-03-24T13:55:18;6.30;;;3.80;;
77453;SDS011;66538;53.150;18.160;2023-03-24T13:58:11;6.10;;;3.60;;
77453;SDS011;66538;53.150;18.160;2023-03-24T14:01:05;5.60;;;3.20;;
77453;SDS011;66538;53.150;18.160;2023-03-24T14:03:38;6.60;;;3.70;;
77453;SDS011;66538;53.150;18.160;2023-03-24T14:06:42;5.90;;;3.20;;
77453;SDS011;66538;53.150;18.160;2023-03-24T14:09:21;5.60;;;3.90;;
77453;SDS011;66538;53.150;18.160;2023-03-24T14:11:49;8.00;;;4.70;;
77453;SDS011;66538;53.150;18.160;2023-03-24T14:14:34;12.50;;;7.00;;
77453;SDS011;66538;53.150;18.160;2023-03-24T14:17:21;13.70;;;8.10;;
77453;SDS011;66538;53.150;18.160;2023-03-24T14:22:32;10.20;;;6.30;;
77453;SDS011;66538;53.150;18.160;2023-03-24T14:25:03;6.70;;;3.40;;
77453;SDS011;66538;53.150;18.160;2023-03-24T14:27:43;7.60;;;4.00;;
77453;SDS011;66538;53.150;18.160;2023-03-24T14:32:48;7.90;;;4.00;;
77453;SDS011;66538;53.150;18.160;2023-03-24T14:35:19;5.60;;;3.30;;
77453;SDS011;66538;53.150;18.160;2023-03-24T14:37:50;6.30;;;3.20;;
77453;SDS011;66538;53.150;18.160;2023-03-24T14:40:28;6.50;;;3.70;;
77453;SDS011;66538;53.150;18.160;2023-03-24T14:46:04;7.10;;;3.40;;
77453;SDS011;66538;53.150;18.160;2023-03-24T14:48:32;7.80;;;4.60;;
77453;SDS011;66538;53.150;18.160;2023-03-24T14:51:47;6.40;;;4.30;;
77453;SDS011;66538;53.150;18.160;2023-03-24T14:54:13;5.20;;;2.80;;
77453;SDS011;66538;53.150;18.160;2023-03-24T14:57:01;6.50;;;3.60;;
77453;SDS011;66538;53.150;18.160;2023-03-24T14:59:34;7.80;;;3.80;;
77453;SDS011;66538;53.150;18.160;2023-03-24T15:10:39;7.00;;;3.70;;
77453;SDS011;66538;53.150;18.160;2023-03-24T15:15:53;5.10;;;2.20;;
77453;SDS011;66538;53.150;18.160;2023-03-24T15:18:20;4.80;;;2.60;;
77453;SDS011;66538;53.150;18.160;2023-03-24T15:20:48;5.00;;;2.50;;
77453;SDS011;66538;53.150;18.160;2023-03-24T15:25:47;4.90;;;2.30;;
77453;SDS011;66538;53.150;18.160;2023-03-24T15:28:21;5.50;;;2.60;;
77453;SDS011;66538;53.150;18.160;2023-03-24T15:30:52;5.00;;;2.90;;
77453;SDS011;66538;53.150;18.160;2023-03-24T15:33:21;5.70;;;3.20;;
77453;SDS011;66538;53.150;18.160;2023-03-24T15:35:53;5.40;;;3.40;;
77453;SDS011;66538;53.150;18.160;2023-03-24T15:38:29;5.80;;;3.00;;
77453;SDS011;66538;53.150;18.160;2023-03-24T15:43:51;5.40;;;3.00;;
77453;SDS011;66538;53.150;18.160;2023-03-24T15:46:26;6.60;;;3.50;;
77453;SDS011;66538;53.150;18.160;2023-03-24T15:48:55;5.90;;;3.00;;
77453;SDS011;66538;53.150;18.160;2023-03-24T15:54:51;5.90;;;3.10;;
77453;SDS011;66538;53.150;18.160;2023-03-24T15:59:43;9.70;;;5.70;;
77453;SDS011;66538;53.150;18.160;2023-03-24T16:02:18;9.20;;;5.00;;
77453;SDS011;66538;53.150;18.160;2023-03-24T16:04:56;6.70;;;5.20;;
77453;SDS011;66538;53.150;18.160;2023-03-24T16:07:29;6.80;;;4.40;;
77453;SDS011;66538;53.150;18.160;2023-03-24T16:09:59;7.70;;;4.80;;
77453;SDS011;66538;53.150;18.160;2023-03-24T16:12:32;9.60;;;4.90;;
77453;SDS011;66538;53.150;18.160;2023-03-24T16:14:59;14.30;;;8.50;;
77453;SDS011;66538;53.150;18.160;2023-03-24T16:17:26;9.40;;;6.00;;
77453;SDS011;66538;53.150;18.160;2023-03-24T16:19:53;10.90;;;6.20;;
77453;SDS011;66538;53.150;18.160;2023-03-24T16:22:19;9.20;;;6.00;;
77453;SDS011;66538;53.150;18.160;2023-03-24T16:24:46;13.70;;;8.20;;
77453;SDS011;66538;53.150;18.160;2023-03-24T16:27:13;12.40;;;7.40;;
77453;SDS011;66538;53.150;18.160;2023-03-24T16:29:40;9.40;;;6.10;;
77453;SDS011;66538;53.150;18.160;2023-03-24T16:32:07;10.20;;;5.70;;
77453;SDS011;66538;53.150;18.160;2023-03-24T16:34:34;8.10;;;4.70;;
77453;SDS011;66538;53.150;18.160;2023-03-24T16:37:02;15.60;;;8.70;;
77453;SDS011;66538;53.150;18.160;2023-03-24T16:39:29;13.20;;;7.80;;
77453;SDS011;66538;53.150;18.160;2023-03-24T16:41:57;13.50;;;8.40;;
77453;SDS011;66538;53.150;18.160;2023-03-24T16:44:23;11.80;;;7.20;;
77453;SDS011;66538;53.150;18.160;2023-03-24T16:46:50;18.20;;;10.30;;
77453;SDS011;66538;53.150;18.160;2023-03-24T16:49:19;12.30;;;6.60;;
77453;SDS011;66538;53.150;18.160;2023-03-24T16:51:46;11.40;;;6.70;;
77453;SDS011;66538;53.150;18.160;2023-03-24T16:54:13;13.50;;;7.90;;
77453;SDS011;66538;53.150;18.160;2023-03-24T16:56:40;10.00;;;6.50;;
77453;SDS011;66538;53.150;18.160;2023-03-24T16:59:07;7.70;;;4.20;;
77453;SDS011;66538;53.150;18.160;2023-03-24T17:04:06;7.10;;;4.00;;
77453;SDS011;66538;53.150;18.160;2023-03-24T17:06:38;8.20;;;5.50;;
77453;SDS011;66538;53.150;18.160;2023-03-24T17:09:07;7.90;;;5.00;;
77453;SDS011;66538;53.150;18.160;2023-03-24T17:11:36;6.60;;;3.40;;
77453;SDS011;66538;53.150;18.160;2023-03-24T17:14:05;7.60;;;4.30;;
77453;SDS011;66538;53.150;18.160;2023-03-24T17:16:34;11.00;;;6.80;;
77453;SDS011;66538;53.150;18.160;2023-03-24T17:19:06;8.50;;;4.60;;
77453;SDS011;66538;53.150;18.160;2023-03-24T17:21:33;7.40;;;3.60;;
77453;SDS011;66538;53.150;18.160;2023-03-24T17:24:03;7.00;;;3.40;;
77453;SDS011;66538;53.150;18.160;2023-03-24T17:26:36;5.70;;;2.60;;
77453;SDS011;66538;53.150;18.160;2023-03-24T17:29:03;5.40;;;2.70;;
77453;SDS011;66538;53.150;18.160;2023-03-24T17:31:30;5.40;;;2.50;;
77453;SDS011;66538;53.150;18.160;2023-03-24T17:33:57;4.60;;;1.60;;
77453;SDS011;66538;53.150;18.160;2023-03-24T17:36:24;4.20;;;2.00;;
77453;SDS011;66538;53.150;18.160;2023-03-24T17:38:51;4.10;;;1.50;;
77453;SDS011;66538;53.150;18.160;2023-03-24T17:41:17;4.50;;;1.50;;
77453;SDS011;66538;53.150;18.160;2023-03-24T17:43:44;3.30;;;1.40;;
77453;SDS011;66538;53.150;18.160;2023-03-24T17:46:12;4.30;;;1.70;;
77453;SDS011;66538;53.150;18.160;2023-03-24T17:48:38;3.60;;;1.40;;
77453;SDS011;66538;53.150;18.160;2023-03-24T17:51:05;4.70;;;2.00;;
77453;SDS011;66538;53.150;18.160;2023-03-24T17:53:32;3.60;;;1.70;;
77453;SDS011;66538;53.150;18.160;2023-03-24T17:55:59;4.00;;;1.80;;
77453;SDS011;66538;53.150;18.160;2023-03-24T17:58:31;5.30;;;2.00;;
77453;SDS011;66538;53.150;18.160;2023-03-24T18:01:00;3.70;;;1.60;;
77453;SDS011;66538;53.150;18.160;2023-03-24T18:03:28;3.90;;;1.70;;
77453;SDS011;66538;53.150;18.160;2023-03-24T18:05:55;4.00;;;1.60;;
77453;SDS011;66538;53.150;18.160;2023-03-24T18:08:22;4.80;;;2.40;;
77453;SDS011;66538;53.150;18.160;2023-03-24T18:10:48;5.30;;;1.90;;
77453;SDS011;66538;53.150;18.160;2023-03-24T18:13:15;6.70;;;2.50;;
77453;SDS011;66538;53.150;18.160;2023-03-24T18:15:41;6.70;;;2.70;;
77453;SDS011;66538;53.150;18.160;2023-03-24T18:18:08;6.30;;;2.90;;
77453;SDS011;66538;53.150;18.160;2023-03-24T18:20:35;7.50;;;3.00;;
77453;SDS011;66538;53.150;18.160;2023-03-24T18:23:04;6.00;;;3.40;;
77453;SDS011;66538;53.150;18.160;2023-03-24T18:25:31;8.50;;;4.10;;
77453;SDS011;66538;53.150;18.160;2023-03-24T18:27:58;13.30;;;5.60;;
77453;SDS011;66538;53.150;18.160;2023-03-24T18:30:25;21.80;;;8.50;;
77453;SDS011;66538;53.150;18.160;2023-03-24T18:32:51;18.00;;;7.70;;
77453;SDS011;66538;53.150;18.160;2023-03-24T18:35:18;16.90;;;9.60;;
77453;SDS011;66538;53.150;18.160;2023-03-24T18:37:45;16.10;;;8.90;;
77453;SDS011;66538;53.150;18.160;2023-03-24T18:40:12;14.60;;;7.10;;
77453;SDS011;66538;53.150;18.160;2023-03-24T18:42:40;40.30;;;17.80;;
77453;SDS011;66538;53.150;18.160;2023-03-24T18:45:07;34.20;;;16.30;;
77453;SDS011;66538;53.150;18.160;2023-03-24T18:47:34;17.30;;;10.00;;
77453;SDS011;66538;53.150;18.160;2023-03-24T18:50:01;12.10;;;6.30;;
77453;SDS011;66538;53.150;18.160;2023-03-24T18:52:27;10.90;;;5.70;;
77453;SDS011;66538;53.150;18.160;2023-03-24T18:54:54;12.90;;;5.80;;
77453;SDS011;66538;53.150;18.160;2023-03-24T18:57:21;13.20;;;6.40;;
77453;SDS011;66538;53.150;18.160;2023-03-24T18:59:47;8.90;;;4.80;;
77453;SDS011;66538;53.150;18.160;2023-03-24T19:02:18;13.10;;;7.80;;
77453;SDS011;66538;53.150;18.160;2023-03-24T19:04:47;10.70;;;5.30;;
77453;SDS011;66538;53.150;18.160;2023-03-24T19:07:14;11.00;;;6.20;;
77453;SDS011;66538;53.150;18.160;2023-03-24T19:09:49;6.60;;;3.20;;
77453;SDS011;66538;53.150;18.160;2023-03-24T19:12:16;5.90;;;3.40;;
77453;SDS011;66538;53.150;18.160;2023-03-24T19:14:43;7.20;;;3.80;;
77453;SDS011;66538;53.150;18.160;2023-03-24T19:17:09;8.90;;;4.00;;
77453;SDS011;66538;53.150;18.160;2023-03-24T19:19:36;7.20;;;3.80;;
77453;SDS011;66538;53.150;18.160;2023-03-24T19:22:03;7.90;;;3.80;;
77453;SDS011;66538;53.150;18.160;2023-03-24T19:24:31;8.60;;;4.50;;
77453;SDS011;66538;53.150;18.160;2023-03-24T19:26:57;11.50;;;5.30;;
77453;SDS011;66538;53.150;18.160;2023-03-24T19:29:24;16.40;;;7.10;;
77453;SDS011;66538;53.150;18.160;2023-03-24T19:31:51;14.10;;;6.10;;
77453;SDS011;66538;53.150;18.160;2023-03-24T19:34:17;11.50;;;5.20;;
77453;SDS011;66538;53.150;18.160;2023-03-24T19:36:44;9.80;;;5.50;;
77453;SDS011;66538;53.150;18.160;2023-03-24T19:39:11;10.30;;;5.50;;
77453;SDS011;66538;53.150;18.160;2023-03-24T19:41:39;10.30;;;6.50;;
77453;SDS011;66538;53.150;18.160;2023-03-24T19:44:06;14.80;;;8.90;;
77453;SDS011;66538;53.150;18.160;2023-03-24T19:46:33;15.30;;;10.20;;
77453;SDS011;66538;53.150;18.160;2023-03-24T19:49:00;12.20;;;6.90;;
77453;SDS011;66538;53.150;18.160;2023-03-24T19:51:27;9.70;;;5.90;;
77453;SDS011;66538;53.150;18.160;2023-03-24T19:53:54;8.50;;;4.10;;
77453;SDS011;66538;53.150;18.160;2023-03-24T19:56:21;10.80;;;5.30;;
77453;SDS011;66538;53.150;18.160;2023-03-24T19:58:47;9.80;;;4.50;;
77453;SDS011;66538;53.150;18.160;2023-03-24T20:01:14;8.50;;;4.20;;